Dixmont, Maine
Current Conditions -  °F | °C
As of 11:53 AM on Tuesday 27 Jan 2015 (Local Time) from KBGR Reporting Station
Moderate Snow Moderate Snow  
Wind Chill: -13°   Ceiling: 800
Heat Index: 10°   Visibility: 0.5mi
Dew Point:   Wind: 32mph
Humidity: 87%   Direction: 20°NNE
Pressure: 29.67"   Gusts: 44mph
Location:  44.68°N, 69.16°W
Report Text: KBGR 271653Z 02028G38KT 1/2SM R15/2400V3000FT SN BLSN VV008 M12/M14 A2967 RMK AO2 PK WND 02038/1653 PRESFR SLP054 P0001 T11221139
Loading
Personal Weather Stations






























Interactive Weather Map New forecast layout! Learn more

10-Day Weather Forecast

Advertisements
Track Severe Weather on mobile